Flight Track Log - Related Links

Times and Time Zones

All times are in EDT time to prevent confusion due to time zone crossing. See the ASQ4633 flight status page for this flight to view local times or setup timezone preferences in your user account.

Time Position Orientation Groundspeed Altitude Reporting Facility
EDT Latitude Longitude Course Direction KTS MPH feet Rate Location/Type
Mon 11:07:43 PM 39.8833 -104.5500 85° East 201 231 7,500  Level Denver TRACON
Mon 11:08:43 PM 39.8833 -104.4667 90° East 234 269 9,300 1,829 Climbing Denver TRACON
Mon 11:09:05 PM 39.8747 -104.4406 113° Southeast 233 268 10,000 1,571 Climbing Denver Center
Mon 11:10:00 PM 39.8667 -104.0754 90° East  Level FlightAware Approximate
Mon 11:10:07 PM 39.8739 -104.3461 91° East 260 299 11,500  Level Denver Center
Mon 11:11:00 PM 39.8667 -103.9273 90° East  Level FlightAware Approximate
Mon 11:11:08 PM 39.8733 -104.2403 90° East 291 335 13,100  Level Denver Center
Mon 11:12:00 PM 39.8716 -103.7802 72° East  Level FlightAware Approximate
Mon 11:12:10 PM 39.8722 -104.1183 91° East 315 362 14,800  Level Denver Center
Mon 11:13:00 PM 39.8900 -103.6348 85° East  Level FlightAware Approximate
Mon 11:13:11 PM 39.8717 -104.0003 90° East 325 374 16,900  Level Denver Center
Mon 11:14:13 PM 39.8711 -103.8822 90° East 319 367 18,500 1,415 Climbing Denver Center
Mon 11:15:14 PM 39.8806 -103.7647 84° East 333 383 19,800 1,475 Climbing Denver Center
Mon 11:16:15 PM 39.8942 -103.6386 82° East 342 394 21,500 1,659 Climbing Denver Center
Mon 11:17:17 PM 39.9078 -103.5094 82° East 360 414 23,200 1,610 Climbing Denver Center
Mon 11:18:18 PM 39.9233 -103.3803 81° East 361 415 24,800 1,366 Climbing Denver Center
Mon 11:19:20 PM 39.9392 -103.2458 81° East 375 432 26,000 1,073 Climbing Denver Center
Mon 11:20:21 PM 39.9547 -103.1047 82° East 393 452 27,000 1,131 Climbing Denver Center
Mon 11:21:22 PM 39.9728 -102.9258 82° East 415 478 28,300 1,122 Climbing Denver Center
Mon 11:22:24 PM 39.9900 -102.7725 82° East 427 491 29,300 1,024 Climbing Denver Center
Mon 11:23:25 PM 40.0064 -102.6272 82° East 431 496 30,400 1,561 Climbing Denver Center
Mon 11:24:27 PM 40.0236 -102.4550 83° East 428 493 32,500 1,902 Climbing Denver Center
Mon 11:25:28 PM 40.0386 -102.3161 82° East 405 466 34,300 1,230 Climbing Denver Center
Mon 11:26:29 PM 40.0503 -102.2011 82° East 401 461 35,000 341 Climbing Denver Center
Mon 11:27:31 PM 40.0672 -102.0331 82° East 420 483 35,000  Level Denver Center
Mon 11:28:33 PM 40.0742 -101.8517 87° East 449 517 35,000  Level Denver Center
Mon 11:29:34 PM 40.0558 -101.6700 97° East 453 521 35,000  Level Denver Center
Mon 11:30:36 PM 40.0406 -101.5153 97° East 452 520 35,000  Level Denver Center
Mon 11:31:37 PM 40.0275 -101.3281 95° East 464 534 35,000 780 Level Denver Center
Mon 11:32:39 PM 40.0289 -101.1692 89° East 461 531 36,600 976 Climbing Denver Center
Mon 11:33:40 PM 40.0369 -101.0181 86° East 443 510 37,000 197 Climbing Denver Center
Mon 11:34:41 PM 40.0428 -100.8344 88° East 452 520 37,000  Level Denver Center
Mon 11:35:43 PM 40.0483 -100.6769 87° East 456 525 37,000  Level Denver Center
Mon 11:36:44 PM 40.0886 -100.5017 73° East 456 525 37,000  Level Denver Center
Mon 11:37:46 PM 40.1244 -100.3483 73° East 460 529 37,000  Level Denver Center
Mon 11:38:47 PM 40.1689 -100.1669 72° East 469 540 37,000  Level Denver Center
Mon 11:39:49 PM 40.2064 -100.0094 73° East 475 547 37,000  Level Denver Center
Mon 11:40:50 PM 40.2428 -99.8544 73° East 475 547 37,000  Level Denver Center
Mon 11:41:51 PM 40.2808 -99.6911 73° East 471 542 37,000  Level Denver Center
Mon 11:42:53 PM 40.3261 -99.4967 73° East 467 537 37,000  Level Denver Center
Mon 11:43:54 PM 40.3628 -99.3347 73° East 466 536 37,000  Level Denver Center
Mon 11:44:17 PM 40.3772 -99.2717 73° East 465 535 37,000  Level Minneapolis Center
Mon 11:44:56 PM 40.4003 -99.1742 73° East 463 533 37,000  Level Denver Center
Mon 11:45:19 PM 40.4144 -99.1108 74° East 464 534 37,000  Level Minneapolis Center
Mon 11:46:20 PM 40.4506 -98.9514 73° East 460 529 37,000  Level Minneapolis Center
Mon 11:47:21 PM 40.4858 -98.7911 74° East 461 531 37,000  Level Minneapolis Center
Mon 11:48:22 PM 40.5208 -98.6306 74° East 460 529 37,000  Level Minneapolis Center
Mon 11:49:23 PM 40.5567 -98.4717 73° East 458 527 37,000  Level Minneapolis Center
Mon 11:50:25 PM 40.5914 -98.3131 74° East 455 524 37,000  Level Minneapolis Center
Mon 11:51:26 PM 40.6253 -98.1522 74° East 458 527 37,000  Level Minneapolis Center
Mon 11:52:27 PM 40.6681 -97.9567 74° East 464 534 37,000  Level Minneapolis Center
Mon 11:53:28 PM 40.7028 -97.7925 74° East 466 536 37,000  Level Minneapolis Center
Mon 11:54:29 PM 40.7378 -97.6283 74° East 468 539 37,000  Level Minneapolis Center
Mon 11:55:30 PM 40.7733 -97.4644 74° East 466 536 37,000  Level Minneapolis Center
Mon 11:56:31 PM 40.8053 -97.3061 75° East 467 537 37,000  Level Minneapolis Center
Mon 11:57:32 PM 40.8394 -97.1425 75° East 463 533 37,000 -49 Level Minneapolis Center
Mon 11:58:34 PM 40.8764 -96.9661 74° East 475 547 36,900 -905 Descending Minneapolis Center
Mon 11:59:38 PM 40.9156 -96.7717 75° East 473 544 35,100 -905 Descending Minneapolis Center
Tue 12:00:40 AM 40.9428 -96.6011 78° East 475 547 35,000 -49 Descending Minneapolis Center
Tue 12:01:41 AM 40.9658 -96.4267 80° East 482 555 35,000  Level Minneapolis Center
Tue 12:02:42 AM 40.9897 -96.2525 80° East 484 557 35,000  Level Minneapolis Center
Tue 12:03:43 AM 41.0122 -96.0786 80° East 485 558 35,000  Level Minneapolis Center
Tue 12:04:44 AM 41.0356 -95.9042 80° East 485 558 35,000  Level Minneapolis Center
Tue 12:05:45 AM 41.0589 -95.7292 80° East 488 562 35,000  Level Minneapolis Center
Tue 12:06:46 AM 41.0864 -95.5181 80° East 489 563 35,000  Level Minneapolis Center
Tue 12:07:47 AM 41.1089 -95.3422 80° East 488 562 35,000  Level Minneapolis Center
Tue 12:08:48 AM 41.1314 -95.1650 80° East 489 563 35,000  Level Minneapolis Center
Tue 12:09:49 AM 41.1542 -94.9881 80° East 489 563 35,000  Level Minneapolis Center
Tue 12:10:50 AM 41.1756 -94.8100 81° East 490 564 35,000  Level Minneapolis Center
Tue 12:11:50 AM 41.1967 -94.6319 81° East 490 564 35,000  Level Minneapolis Center
Tue 12:12:51 AM 41.2167 -94.4536 81° East 489 563 35,000  Level Minneapolis Center
Tue 12:13:52 AM 41.2378 -94.2753 81° East 490 564 35,000  Level Minneapolis Center
Tue 12:14:53 AM 41.2600 -94.0858 81° East 490 564 35,000  Level Minneapolis Center
Tue 12:15:54 AM 41.2811 -93.9089 81° East 488 562 35,000  Level Minneapolis Center
Tue 12:16:55 AM 41.2964 -93.7311 83° East 489 563 35,000  Level Minneapolis Center
Tue 12:17:56 AM 41.3064 -93.5506 86° East 492 566 35,000 -344 Level Minneapolis Center
Tue 12:18:57 AM 41.3194 -93.3675 85° East 497 572 34,300 -793 Descending Minneapolis Center
Tue 12:19:57 AM 41.3294 -93.1875 86° East 494 568 33,400 -942 Descending Minneapolis Center
Tue 12:20:58 AM 41.3392 -93.0100 86° East 489 563 32,400 -934 Descending Minneapolis Center
Tue 12:21:59 AM 41.3486 -92.8303 86° East 488 562 31,500 -947 Descending Minneapolis Center
Tue 12:22:33 AM 41.3533 -92.7225 87° East 488 562 30,900 -947 Descending Chicago Center
Tue 12:23:34 AM 41.3636 -92.5403 86° East 494 568 30,000 -1,475 Descending Chicago Center
Tue 12:24:35 AM 41.3731 -92.3600 86° East 500 575 27,900 -2,678 Descending Chicago Center
Tue 12:25:35 AM 41.3836 -92.1478 86° East 486 559 24,600 -2,826 Descending Chicago Center
Tue 12:26:36 AM 41.3908 -91.9733 87° East 480 552 22,200 -2,361 Descending Chicago Center
Tue 12:27:37 AM 41.3992 -91.8022 86° East 471 542 19,800 -2,346 Descending Chicago Center
Tue 12:30:00 AM 41.3991 -91.4878 83° East  Level FlightAware Approximate
Tue 12:30:39 AM 41.4186 -91.3397 83° East 406 467 12,700  Level Chicago Center
Tue 12:31:39 AM 41.4236 -91.1844 87° East 374 430 10,700 -1,686 Descending Chicago Center
Tue 12:32:40 AM 41.4289 -91.0625 87° East 335 386 9,300 -1,623 Descending Chicago Center
Tue 12:33:41 AM 41.4328 -90.9489 87° East 312 359 7,400 -1,884 Descending Chicago Center
Tue 12:34:41 AM 41.4358 -90.8456 88° East 285 328 5,500 -1,983 Descending Chicago Center
Tue 12:35:42 AM 41.4417 -90.7517 85° East 261 300 3,400 -1,686 Descending Chicago Center
Tue 12:36:42 AM 41.4475 -90.6636 85° East 251 289 2,100 -893 Descending Chicago Center
Tue 12:37:43 AM 41.4500 -90.6136 86° East 182 209 1,600 -492 Descending Chicago Center

Login

Don't have an account? Register now (free) for customized features, flight alerts, and more!